createdAt,value
2022-11-24T00:01:28.481Z,6.22
2022-11-24T00:03:58.805Z,5.80
2022-11-24T00:06:28.121Z,5.43
2022-11-24T00:08:58.488Z,5.78
2022-11-24T00:11:29.082Z,4.15
2022-11-24T00:13:59.065Z,3.53
2022-11-24T00:16:29.495Z,3.17
2022-11-24T00:18:59.731Z,5.40
2022-11-24T00:21:30.060Z,6.07
2022-11-24T00:24:01.008Z,5.55
2022-11-24T00:26:31.035Z,4.88
2022-11-24T00:29:01.083Z,3.95
2022-11-24T00:31:32.003Z,4.35
2022-11-24T00:34:02.252Z,6.20
2022-11-24T00:36:32.798Z,3.72
2022-11-24T00:39:05.110Z,4.82
2022-11-24T00:41:33.860Z,3.88
2022-11-24T00:44:02.583Z,5.75
2022-11-24T00:46:31.389Z,4.55
2022-11-24T00:49:00.507Z,6.45
2022-11-24T00:51:30.412Z,6.43
2022-11-24T00:53:59.668Z,5.43
2022-11-24T00:56:30.630Z,4.85
2022-11-24T00:58:59.418Z,4.47
2022-11-24T01:01:31.164Z,5.40
2022-11-24T01:04:01.539Z,4.38
2022-11-24T01:06:32.694Z,6.15
2022-11-24T01:09:01.447Z,6.30
2022-11-24T01:14:21.776Z,5.82
2022-11-24T01:16:50.160Z,5.20
2022-11-24T01:19:19.192Z,3.63
2022-11-24T01:21:48.119Z,6.18
2022-11-24T01:24:17.120Z,6.80
2022-11-24T01:26:47.084Z,6.28
2022-11-24T01:29:15.595Z,6.05
2022-11-24T01:31:44.068Z,6.50
2022-11-24T01:36:41.558Z,5.53
2022-11-24T01:41:38.365Z,5.03
2022-11-24T01:44:24.870Z,6.18
2022-11-24T01:46:58.512Z,6.20
2022-11-24T01:49:33.471Z,7.05
2022-11-24T01:52:08.829Z,7.78
2022-11-24T01:54:40.243Z,7.72
2022-11-24T01:57:12.109Z,5.95
2022-11-24T01:59:42.444Z,6.07
2022-11-24T02:02:12.211Z,4.75
2022-11-24T02:04:41.881Z,5.50
2022-11-24T02:07:10.664Z,3.67
2022-11-24T02:09:44.355Z,5.22
2022-11-24T02:12:13.072Z,5.43
2022-11-24T02:14:45.645Z,4.70
2022-11-24T02:17:14.310Z,6.43
2022-11-24T02:19:50.328Z,6.43
2022-11-24T02:22:28.606Z,7.18
2022-11-24T02:25:02.526Z,6.05
2022-11-24T02:27:33.686Z,6.28
2022-11-24T02:30:02.620Z,6.13
2022-11-24T02:32:34.380Z,7.28
2022-11-24T02:35:05.146Z,6.53
2022-11-24T02:37:33.620Z,5.57
2022-11-24T02:40:02.083Z,6.53
2022-11-24T02:42:38.354Z,6.00
2022-11-24T02:45:10.387Z,5.60
2022-11-24T02:47:38.947Z,5.22
2022-11-24T02:52:36.326Z,6.80
2022-11-24T03:00:03.103Z,6.82
2022-11-24T03:02:34.029Z,7.57
2022-11-24T03:07:32.356Z,7.13
2022-11-24T03:10:01.065Z,8.18
2022-11-24T03:14:59.163Z,6.97
2022-11-24T03:17:27.973Z,6.35
2022-11-24T03:20:00.116Z,7.43
2022-11-24T03:22:31.851Z,5.70
2022-11-24T03:25:00.449Z,7.20
2022-11-24T03:27:28.979Z,7.47
2022-11-24T03:29:58.894Z,7.03
2022-11-24T03:32:27.548Z,7.50
2022-11-24T03:37:24.356Z,5.88
2022-11-24T03:42:21.222Z,7.28
2022-11-24T03:44:50.072Z,5.63
2022-11-24T03:47:22.517Z,7.80
2022-11-24T03:49:53.370Z,5.72
2022-11-24T03:52:21.862Z,7.07
2022-11-24T03:54:50.404Z,7.75
2022-11-24T03:59:47.434Z,5.75
2022-11-24T04:02:16.110Z,6.50
2022-11-24T04:04:50.770Z,6.50
2022-11-24T04:07:19.396Z,6.72
2022-11-24T04:12:33.622Z,5.78
2022-11-24T04:15:02.131Z,6.15
2022-11-24T04:17:32.650Z,5.78
2022-11-24T04:22:31.577Z,7.28
2022-11-24T04:25:00.039Z,6.05
2022-11-24T04:27:28.606Z,7.30
2022-11-24T04:29:57.043Z,6.70
2022-11-24T04:34:54.827Z,5.93
2022-11-24T04:37:24.747Z,7.22
2022-11-24T04:39:55.110Z,5.05
2022-11-24T04:42:23.516Z,4.28
2022-11-24T04:44:51.928Z,4.30
2022-11-24T04:49:50.353Z,6.95
2022-11-24T04:52:19.652Z,7.07
2022-11-24T04:54:49.948Z,7.20
2022-11-24T04:57:19.781Z,7.50
2022-11-24T04:59:48.353Z,7.35
2022-11-24T05:02:17.162Z,4.97
2022-11-24T05:04:47.457Z,8.05
2022-11-24T05:07:19.168Z,4.25
2022-11-24T05:10:06.688Z,7.55
2022-11-24T05:12:35.271Z,7.55
2022-11-24T05:17:35.524Z,6.70
2022-11-24T05:20:04.877Z,7.40
2022-11-24T05:22:33.617Z,7.35
2022-11-24T05:25:03.648Z,7.68
2022-11-24T05:27:32.194Z,8.02
2022-11-24T05:30:00.674Z,7.43
2022-11-24T05:32:29.414Z,7.35
2022-11-24T05:34:58.375Z,5.35
2022-11-24T05:37:26.898Z,6.75
2022-11-24T05:39:55.801Z,8.82
2022-11-24T05:42:47.749Z,6.82
2022-11-24T05:45:18.700Z,4.45
2022-11-24T05:47:51.568Z,7.72
2022-11-24T05:50:22.243Z,7.60
2022-11-24T05:52:51.988Z,5.45
2022-11-24T05:55:20.833Z,6.20
2022-11-24T05:57:50.684Z,7.20
2022-11-24T06:00:20.275Z,7.80
2022-11-24T06:02:57.317Z,6.20
2022-11-24T06:05:30.219Z,6.95
2022-11-24T06:08:00.784Z,8.00
2022-11-24T06:10:30.845Z,5.82
2022-11-24T06:13:00.869Z,7.03
2022-11-24T06:15:29.303Z,6.80
2022-11-24T06:17:58.412Z,7.60
2022-11-24T06:20:32.292Z,7.25
2022-11-24T06:23:02.018Z,7.40
2022-11-24T06:25:30.897Z,7.93
2022-11-24T06:28:04.043Z,7.00
2022-11-24T06:30:32.569Z,7.53
2022-11-24T06:33:01.309Z,7.05
2022-11-24T06:35:29.891Z,5.50
2022-11-24T06:40:26.588Z,6.05
2022-11-24T06:42:55.078Z,6.63
2022-11-24T06:47:55.142Z,7.22
2022-11-24T06:50:25.221Z,6.80
2022-11-24T06:52:56.319Z,6.93
2022-11-24T06:55:24.696Z,6.55
2022-11-24T07:00:21.656Z,6.97
2022-11-24T07:02:51.648Z,6.95
2022-11-24T07:05:20.291Z,8.25
2022-11-24T07:10:20.208Z,6.50
2022-11-24T07:12:48.831Z,6.10
2022-11-24T07:15:17.521Z,7.05
2022-11-24T07:17:45.992Z,9.23
2022-11-24T07:22:43.978Z,6.85
2022-11-24T07:25:14.015Z,7.10
2022-11-24T07:27:42.676Z,6.78
2022-11-24T07:35:08.458Z,8.40
2022-11-24T07:37:38.514Z,5.88
2022-11-24T07:40:08.213Z,8.02
2022-11-24T07:42:36.709Z,9.00
2022-11-24T07:45:05.604Z,9.30
2022-11-24T07:47:34.110Z,7.90
2022-11-24T07:52:31.447Z,8.80
2022-11-24T07:57:29.976Z,7.68
2022-11-24T07:59:58.468Z,6.43
2022-11-24T08:04:55.178Z,7.65
2022-11-24T08:07:23.898Z,7.40
2022-11-24T08:09:52.458Z,6.82
2022-11-24T08:14:52.795Z,8.77
2022-11-24T08:17:21.418Z,7.82
2022-11-24T08:19:49.825Z,8.23
2022-11-24T08:22:18.405Z,8.52
2022-11-24T08:24:48.917Z,7.25
2022-11-24T08:27:17.545Z,8.43
2022-11-24T08:29:47.670Z,6.78
2022-11-24T08:32:21.956Z,5.93
2022-11-24T08:34:52.110Z,7.97
2022-11-24T08:37:20.861Z,7.22
2022-11-24T08:42:17.567Z,5.07
2022-11-24T08:47:15.667Z,7.70
2022-11-24T08:49:44.142Z,7.70
2022-11-24T08:54:41.073Z,7.97
2022-11-24T08:57:09.515Z,6.70
2022-11-24T08:59:38.008Z,10.35
2022-11-24T09:04:36.681Z,6.68
2022-11-24T09:07:05.423Z,6.28
2022-11-24T09:12:03.103Z,8.30
2022-11-24T09:14:31.980Z,6.35
2022-11-24T09:17:00.555Z,8.85
2022-11-24T09:19:30.414Z,8.90
2022-11-24T09:21:59.005Z,8.57
2022-11-24T09:24:28.381Z,4.95
2022-11-24T09:26:57.185Z,7.50
2022-11-24T09:29:25.798Z,5.90
2022-11-24T09:31:54.321Z,8.27
2022-11-24T09:34:22.771Z,8.98
2022-11-24T09:39:20.857Z,6.93
2022-11-24T09:42:05.487Z,4.93
2022-11-24T09:44:49.979Z,8.93
2022-11-24T09:47:30.219Z,8.88
2022-11-24T09:50:04.383Z,8.52
2022-11-24T09:52:43.531Z,8.57
2022-11-24T09:55:26.693Z,8.80
2022-11-24T09:58:06.113Z,10.18
2022-11-24T10:00:35.684Z,7.28
2022-11-24T10:03:04.661Z,10.02
2022-11-24T10:05:37.398Z,8.07
2022-11-24T10:08:20.864Z,8.68
2022-11-24T10:10:56.971Z,9.52
2022-11-24T10:13:38.994Z,9.40
2022-11-24T10:16:18.390Z,7.85
2022-11-24T10:19:03.451Z,8.30
2022-11-24T10:21:52.983Z,8.68
2022-11-24T10:24:37.209Z,7.22
2022-11-24T10:27:17.124Z,11.43
2022-11-24T10:29:50.033Z,7.95
2022-11-24T10:32:23.489Z,5.88
2022-11-24T10:34:53.717Z,8.63
2022-11-24T10:37:28.489Z,8.48
2022-11-24T10:40:33.053Z,8.02
2022-11-24T10:43:01.192Z,6.97
2022-11-24T10:45:30.995Z,8.07
2022-11-24T10:48:00.643Z,8.10
2022-11-24T10:50:33.679Z,6.85
2022-11-24T10:53:11.995Z,5.57
2022-11-24T10:56:04.847Z,8.10
2022-11-24T10:58:54.031Z,7.40
2022-11-24T11:01:49.816Z,8.15
2022-11-24T11:04:21.624Z,7.97
2022-11-24T11:06:50.894Z,8.43
2022-11-24T11:09:21.651Z,8.32
2022-11-24T11:11:55.566Z,7.30
2022-11-24T11:14:40.242Z,6.88
2022-11-24T11:17:35.352Z,8.02
2022-11-24T11:20:06.859Z,8.45
2022-11-24T11:22:39.150Z,7.88
2022-11-24T11:25:20.327Z,7.18
2022-11-24T11:27:51.052Z,7.20
2022-11-24T11:36:16.983Z,7.82
2022-11-24T11:38:48.412Z,6.18
2022-11-24T11:41:21.789Z,7.15
2022-11-24T11:44:03.371Z,8.52
2022-11-24T11:46:33.926Z,6.15
2022-11-24T11:49:02.745Z,6.40
2022-11-24T11:51:50.199Z,8.38
2022-11-24T11:54:34.150Z,6.50
2022-11-24T11:57:12.042Z,4.95
2022-11-24T11:59:59.283Z,4.78
2022-11-24T12:02:56.704Z,6.68
2022-11-24T12:05:32.851Z,7.65
2022-11-24T12:08:21.010Z,6.82
2022-11-24T12:10:58.909Z,7.20
2022-11-24T12:14:03.409Z,8.20
2022-11-24T12:16:45.522Z,7.70
2022-11-24T12:19:29.160Z,7.55
2022-11-24T12:22:07.816Z,6.25
2022-11-24T12:27:22.562Z,6.15
2022-11-24T12:30:06.641Z,6.25
2022-11-24T12:33:00.088Z,7.50
2022-11-24T12:35:38.415Z,6.70
2022-11-24T12:38:33.126Z,5.75
2022-11-24T12:41:43.091Z,5.90
2022-11-24T12:44:28.976Z,5.50
2022-11-24T12:47:04.878Z,5.55
2022-11-24T12:49:42.883Z,5.70
2022-11-24T12:52:22.492Z,5.55
2022-11-24T12:54:51.006Z,6.13
2022-11-24T12:57:26.643Z,6.05
2022-11-24T13:00:02.886Z,6.03
2022-11-24T13:02:46.496Z,4.80
2022-11-24T13:05:23.535Z,5.68
2022-11-24T13:07:58.846Z,5.68
2022-11-24T13:13:31.524Z,5.57
2022-11-24T13:19:15.312Z,5.78
2022-11-24T13:24:37.064Z,5.80
2022-11-24T13:27:43.032Z,6.53
2022-11-24T13:30:54.353Z,6.03
2022-11-24T13:33:34.530Z,6.10
2022-11-24T13:36:31.843Z,5.50
2022-11-24T13:39:01.263Z,6.03
2022-11-24T13:42:42.922Z,4.68
2022-11-24T13:45:03.051Z,5.25
2022-11-24T13:47:44.264Z,6.93
2022-11-24T13:50:46.994Z,6.63
2022-11-24T13:53:23.449Z,7.20
2022-11-24T13:55:59.332Z,6.45
2022-11-24T13:58:37.518Z,6.15
2022-11-24T14:01:16.215Z,6.82
2022-11-24T14:06:49.600Z,6.88
2022-11-24T14:09:27.021Z,6.25
2022-11-24T14:12:00.507Z,7.23
2022-11-24T14:14:32.693Z,7.15
2022-11-24T14:20:44.746Z,6.72
2022-11-24T14:23:14.802Z,2.90
2022-11-24T14:25:50.362Z,6.70
2022-11-24T14:28:30.534Z,6.55
2022-11-24T14:31:09.706Z,4.75
2022-11-24T14:33:38.334Z,6.95
2022-11-24T14:41:17.900Z,7.10
2022-11-24T14:43:46.435Z,5.93
2022-11-24T14:49:08.961Z,6.15
2022-11-24T14:51:44.060Z,4.95
2022-11-24T14:54:20.152Z,6.53
2022-11-24T14:57:03.530Z,4.70
2022-11-24T14:59:36.218Z,5.97
2022-11-24T15:02:24.878Z,5.95
2022-11-24T15:05:21.132Z,6.25
2022-11-24T15:07:51.580Z,6.20
2022-11-24T15:10:30.543Z,5.70
2022-11-24T15:13:04.488Z,6.25
2022-11-24T15:15:36.137Z,5.53
2022-11-24T15:18:06.715Z,6.50
2022-11-24T15:20:37.526Z,5.15
2022-11-24T15:23:26.714Z,3.65
2022-11-24T15:25:57.588Z,5.38
2022-11-24T15:28:26.884Z,6.38
2022-11-24T15:30:56.624Z,5.30
2022-11-24T15:33:25.129Z,5.65
2022-11-24T15:38:22.585Z,5.38
2022-11-24T15:40:53.394Z,5.70
2022-11-24T15:43:31.096Z,5.60
2022-11-24T15:46:00.682Z,5.57
2022-11-24T15:48:30.071Z,5.72
2022-11-24T15:50:59.882Z,5.57
2022-11-24T15:53:32.188Z,6.13
2022-11-24T15:56:02.671Z,4.75
2022-11-24T15:58:32.567Z,4.50
2022-11-24T16:01:01.294Z,5.38
2022-11-24T16:03:47.598Z,5.05
2022-11-24T16:06:24.532Z,5.38
2022-11-24T16:08:53.824Z,5.50
2022-11-24T16:11:22.405Z,7.00
2022-11-24T16:13:54.228Z,5.65
2022-11-24T16:16:25.015Z,3.65
2022-11-24T16:18:54.149Z,4.60
2022-11-24T16:21:24.459Z,5.50
2022-11-24T16:23:53.490Z,6.18
2022-11-24T16:26:30.437Z,5.72
2022-11-24T16:29:00.335Z,5.93
2022-11-24T16:31:29.008Z,5.93
2022-11-24T16:33:57.458Z,5.25
2022-11-24T16:36:26.239Z,5.13
2022-11-24T16:38:54.699Z,6.05
2022-11-24T16:46:22.853Z,5.15
2022-11-24T16:48:53.238Z,5.40
2022-11-24T16:51:24.499Z,5.93
2022-11-24T16:53:59.083Z,5.72
2022-11-24T16:56:28.750Z,5.97
2022-11-24T16:58:57.813Z,6.05
2022-11-24T17:01:27.799Z,5.40
2022-11-24T17:03:56.352Z,5.90
2022-11-24T17:08:54.297Z,5.68
2022-11-24T17:11:24.931Z,5.07
2022-11-24T17:13:55.985Z,5.57
2022-11-24T17:16:31.701Z,5.53
2022-11-24T17:19:00.268Z,5.68
2022-11-24T17:21:29.325Z,4.47
2022-11-24T17:24:00.546Z,5.55
2022-11-24T17:26:29.954Z,6.55
2022-11-24T17:28:58.764Z,5.53
2022-11-24T17:31:28.885Z,5.50
2022-11-24T17:34:00.353Z,6.38
2022-11-24T17:36:34.305Z,5.63
2022-11-24T17:39:04.589Z,6.55
2022-11-24T17:41:34.562Z,5.03
2022-11-24T17:44:03.065Z,5.80
2022-11-24T17:49:01.882Z,3.55
2022-11-24T17:51:30.550Z,5.65
2022-11-24T17:53:59.127Z,5.32
2022-11-24T17:56:28.978Z,5.43
2022-11-24T17:58:59.297Z,5.35
2022-11-24T18:01:30.323Z,5.10
2022-11-24T18:03:59.913Z,5.70
2022-11-24T18:06:30.021Z,5.15
2022-11-24T18:08:59.261Z,5.00
2022-11-24T18:11:31.648Z,4.50
2022-11-24T18:14:03.294Z,5.07
2022-11-24T18:16:33.192Z,4.18
2022-11-24T18:19:11.048Z,4.18
2022-11-24T18:21:43.887Z,5.00
2022-11-24T18:24:14.028Z,4.25
2022-11-24T18:26:43.897Z,4.60
2022-11-24T18:29:13.134Z,4.75
2022-11-24T18:31:41.786Z,4.70
2022-11-24T18:34:10.551Z,4.68
2022-11-24T18:36:39.034Z,4.38
2022-11-24T18:41:38.264Z,4.60
2022-11-24T18:44:08.675Z,4.57
2022-11-24T18:46:37.628Z,4.00
2022-11-24T18:49:07.354Z,4.68
2022-11-24T18:51:36.346Z,9.98
2022-11-24T18:54:05.617Z,6.90
2022-11-24T18:56:35.619Z,5.95
2022-11-24T18:59:04.168Z,4.75
2022-11-24T19:04:03.136Z,5.15
2022-11-24T19:06:34.579Z,4.82
2022-11-24T19:09:06.873Z,5.45
2022-11-24T19:11:39.516Z,4.50
2022-11-24T19:14:09.764Z,4.72
2022-11-24T19:16:38.711Z,5.60
2022-11-24T19:19:07.232Z,4.40
2022-11-24T19:24:10.267Z,4.88
2022-11-24T19:26:41.196Z,6.28
2022-11-24T19:29:09.947Z,5.18
2022-11-24T19:31:41.462Z,4.63
2022-11-24T19:34:10.051Z,5.03
2022-11-24T19:39:08.956Z,5.53
2022-11-24T19:41:37.418Z,4.97
2022-11-24T19:46:36.783Z,4.80
2022-11-24T19:49:05.388Z,5.30
2022-11-24T19:54:02.895Z,4.53
2022-11-24T19:56:34.246Z,3.38
2022-11-24T19:59:04.207Z,4.78
2022-11-24T20:01:37.209Z,4.82
2022-11-24T20:04:08.267Z,4.55
2022-11-24T20:06:38.682Z,4.13
2022-11-24T20:09:10.129Z,4.15
2022-11-24T20:11:39.183Z,4.10
2022-11-24T20:14:08.596Z,4.05
2022-11-24T20:16:38.889Z,3.95
2022-11-24T20:19:09.441Z,4.30
2022-11-24T20:21:38.917Z,4.10
2022-11-24T20:24:12.515Z,4.32
2022-11-24T20:26:45.478Z,4.55
2022-11-24T20:29:15.275Z,4.45
2022-11-24T20:31:47.271Z,4.25
2022-11-24T20:34:16.274Z,4.60
2022-11-24T20:36:47.269Z,3.55
2022-11-24T20:39:17.492Z,3.90
2022-11-24T20:41:46.069Z,4.65
2022-11-24T20:46:47.856Z,4.03
2022-11-24T20:49:18.502Z,4.30
2022-11-24T20:51:48.232Z,3.67
2022-11-24T20:54:18.802Z,3.75
2022-11-24T20:56:48.584Z,3.47
2022-11-24T20:59:21.579Z,4.93
2022-11-24T21:01:56.110Z,3.88
2022-11-24T21:04:27.010Z,2.65
2022-11-24T21:06:55.756Z,4.18
2022-11-24T21:09:24.836Z,3.70
2022-11-24T21:11:53.184Z,3.03
2022-11-24T21:14:21.815Z,3.50
2022-11-24T21:16:51.752Z,3.50
2022-11-24T21:19:20.475Z,3.60
2022-11-24T21:21:49.065Z,2.78
2022-11-24T21:24:19.155Z,3.35
2022-11-24T21:26:48.088Z,3.25
2022-11-24T21:29:19.693Z,2.95
2022-11-24T21:31:48.625Z,2.28
2022-11-24T21:34:19.632Z,3.15
2022-11-24T21:36:48.504Z,3.63
2022-11-24T21:39:18.747Z,3.10
2022-11-24T21:41:47.723Z,3.45
2022-11-24T21:44:16.536Z,3.90
2022-11-24T21:46:49.514Z,3.35
2022-11-24T21:49:22.627Z,2.88
2022-11-24T21:51:55.714Z,3.25
2022-11-24T21:54:25.051Z,2.92
2022-11-24T21:56:55.704Z,2.80
2022-11-24T21:59:24.359Z,2.45
2022-11-24T22:01:56.262Z,3.13
2022-11-24T22:04:28.395Z,2.78
2022-11-24T22:06:57.211Z,3.25
2022-11-24T22:09:26.574Z,2.53
2022-11-24T22:11:59.308Z,2.70
2022-11-24T22:14:28.182Z,2.53
2022-11-24T22:16:56.796Z,2.83
2022-11-24T22:21:54.954Z,3.30
2022-11-24T22:26:59.437Z,3.03
2022-11-24T22:29:27.938Z,3.03
2022-11-24T22:31:56.591Z,2.65
2022-11-24T22:34:26.554Z,2.47
2022-11-24T22:36:55.354Z,2.72
2022-11-24T22:39:24.633Z,2.42
2022-11-24T22:41:56.150Z,2.55
2022-11-24T22:44:24.697Z,2.53
2022-11-24T22:49:21.553Z,2.83
2022-11-24T22:51:51.390Z,3.03
2022-11-24T22:54:19.824Z,3.28
2022-11-24T22:59:16.875Z,2.33
2022-11-24T23:01:45.579Z,2.70
2022-11-24T23:04:14.550Z,3.63
2022-11-24T23:06:43.236Z,3.20
2022-11-24T23:09:14.101Z,2.67
2022-11-24T23:11:42.967Z,2.65
2022-11-24T23:14:15.241Z,3.38
2022-11-24T23:16:44.673Z,3.20
2022-11-24T23:19:13.293Z,3.08
2022-11-24T23:21:41.738Z,3.50
2022-11-24T23:26:42.529Z,3.13
2022-11-24T23:29:12.787Z,3.17
2022-11-24T23:31:41.535Z,3.58
2022-11-24T23:34:10.481Z,3.72
2022-11-24T23:36:39.509Z,3.65
2022-11-24T23:39:10.401Z,3.58
2022-11-24T23:41:40.367Z,3.67
2022-11-24T23:44:09.358Z,3.25
2022-11-24T23:46:37.958Z,3.40
2022-11-24T23:51:38.235Z,2.95
2022-11-24T23:54:09.457Z,2.92
2022-11-24T23:56:38.518Z,3.20
2022-11-24T23:59:11.415Z,3.28
